ADDS METAR Data INFO
IDs: Format: Raw Decoded Include TAF

Data at: 0020 UTC 11 Dec 2017

KVTN 102352Z AUTO 28007KT 10SM CLR 08/M08 A3013 RMK AO2 SLP218 T00781083 10167 20078 56002
KVTN 102252Z AUTO 27010KT 10SM CLR 12/M10 A3013 RMK AO2 SLP213 T01171100
KVTN 102152Z AUTO 28014KT 10SM CLR 16/M11 A3013 RMK AO2 PK WND 29026/2118 SLP206 T01561106
KVTN 102052Z AUTO 29016G25KT 10SM CLR 16/M10 A3013 RMK AO2 SLP209 T01611100 56018
KVTN 101952Z AUTO 30012G25KT 10SM CLR 16/M10 A3014 RMK AO2 PK WND 29028/1931 SLP212 T01611100
KVTN 101852Z AUTO 29019G26KT 10SM CLR 15/M11 A3017 RMK AO2 PK WND 30027/1829 SLP222 T01501106
KVTN 101752Z AUTO 30014G23KT 10SM CLR 14/M11 A3019 RMK AO2 SLP230 T01391106 10139 20000 58001
KVTN 101652Z AUTO 29010KT 10SM CLR 12/M09 A3020 RMK AO2 SLP238 T01171089
KVTN 101552Z AUTO 29006KT 10SM CLR 07/M08 A3019 RMK AO2 SLP242 T00671078
KVTN 101452Z AUTO 29006KT 10SM CLR 02/M08 A3019 RMK AO2 SLP247 T00221083 51008
KVTN 101352Z AUTO 26007KT 10SM CLR 01/M08 A3019 RMK AO2 SLP244 T00111083
KVTN 101252Z AUTO 28008KT 10SM CLR 02/M08 A3018 RMK AO2 SLP241 T00171083
KVTN 101152Z AUTO 27009KT 10SM CLR 01/M08 A3017 RMK AO2 SLP237 T00111083 10056 20006 51010
KVTN 101052Z AUTO 28011KT 10SM CLR 03/M08 A3015 RMK AO2 SLP225 T00281083
KVTN 100952Z AUTO 29011KT 10SM CLR 05/M09 A3015 RMK AO2 SLP218 T00501089
KVTN 100852Z AUTO 29015G22KT 10SM CLR 04/M08 A3013 RMK AO2 SLP214 T00441083 53001
KVTN 100752Z AUTO 29016G21KT 10SM CLR 06/M08 A3012 RMK AO2 SLP209 T00561083
KVTN 100652Z AUTO 29015KT 10SM CLR 05/M08 A3012 RMK AO2 SLP212 T00501078 $
KVTN 100552Z AUTO 29012KT 10SM CLR 05/M07 A3013 RMK AO2 SLP217 T00501072 10050 20000 401111033 53007
KVTN 100452Z AUTO 29007KT 10SM CLR 02/M07 A3011 RMK AO2 SLP216 T00171072
KVTN 100352Z AUTO 27007KT 10SM CLR 01/M07 A3011 RMK AO2 SLP220 T00111067
KVTN 100252Z AUTO 26010KT 10SM CLR 00/M06 A3011 RMK AO2 SLP222 T00001061 53005
KVTN 100152Z AUTO 27009KT 10SM CLR 03/M06 A3010 RMK AO2 SLP218 T00331056
KVTN 100052Z AUTO 28007KT 10SM CLR 02/M06 A3009 RMK AO2 SLP216 T00171056
KVTN 092352Z AUTO 27011KT 10SM CLR 03/M06 A3009 RMK AO2 SLP214 T00331056 10111 20017 55006
KVTN 092252Z AUTO 27008KT 10SM CLR 08/M06 A3009 RMK AO2 SLP207 T00831061
KVTN 092152Z AUTO 28012KT 10SM CLR 11/M07 A3010 RMK AO2 SLP206 T01111067
KVTN 092052Z AUTO 29014KT 10SM CLR 11/M07 A3011 RMK AO2 SLP211 T01061072 56023
KVTN 091952Z AUTO 30012KT 10SM CLR 09/M07 A3013 RMK AO2 SLP217 T00941067
KVTN 091852Z AUTO 29011KT 10SM CLR 08/M06 A3016 RMK AO2 SLP226 T00831061
KVTN 091752Z AUTO 30012KT 10SM CLR 06/M06 A3018 RMK AO2 SLP238 T00611061 10061 21033 50002
KVTN 091652Z AUTO VRB05KT 10SM CLR 04/M06 A3020 RMK AO2 SLP243 T00391056
KVTN 091552Z AUTO 29008KT 10SM CLR 01/M06 A3019 RMK AO2 SLP244 T00061061
KVTN 091452Z AUTO 27006KT 10SM CLR M02/M07 A3018 RMK AO2 SLP241 T10171067 51008
KVTN 091352Z AUTO 30007KT 10SM CLR M03/M07 A3017 RMK AO2 SLP241 T10281072
KVTN 091252Z AUTO 29008KT 10SM CLR M02/M07 A3016 RMK AO2 SLP235 T10221067